sensor_id;sensor_type;location;lat;lon;timestamp;P1;durP1;ratioP1;P2;durP2;ratioP2
21198;SDS011;10757;51.038;3.712;2023-03-01T00:01:16;11.95;;;6.00;;
21198;SDS011;10757;51.038;3.712;2023-03-01T00:03:43;10.25;;;5.95;;
21198;SDS011;10757;51.038;3.712;2023-03-01T00:06:09;10.52;;;5.15;;
21198;SDS011;10757;51.038;3.712;2023-03-01T00:08:35;8.02;;;4.78;;
21198;SDS011;10757;51.038;3.712;2023-03-01T00:11:10;9.55;;;5.50;;
21198;SDS011;10757;51.038;3.712;2023-03-01T00:13:42;13.88;;;5.57;;
21198;SDS011;10757;51.038;3.712;2023-03-01T00:16:16;9.32;;;5.28;;
21198;SDS011;10757;51.038;3.712;2023-03-01T00:18:43;10.27;;;5.60;;
21198;SDS011;10757;51.038;3.712;2023-03-01T00:21:09;8.30;;;5.63;;
21198;SDS011;10757;51.038;3.712;2023-03-01T00:23:35;8.18;;;5.32;;
21198;SDS011;10757;51.038;3.712;2023-03-01T00:26:01;8.80;;;5.75;;
21198;SDS011;10757;51.038;3.712;2023-03-01T00:28:27;10.95;;;6.13;;
21198;SDS011;10757;51.038;3.712;2023-03-01T00:30:53;10.80;;;4.97;;
21198;SDS011;10757;51.038;3.712;2023-03-01T00:33:18;10.07;;;5.45;;
21198;SDS011;10757;51.038;3.712;2023-03-01T00:35:44;10.77;;;6.13;;
21198;SDS011;10757;51.038;3.712;2023-03-01T00:38:10;10.25;;;6.30;;
21198;SDS011;10757;51.038;3.712;2023-03-01T00:40:35;10.05;;;6.10;;
21198;SDS011;10757;51.038;3.712;2023-03-01T00:43:02;10.70;;;6.50;;
21198;SDS011;10757;51.038;3.712;2023-03-01T00:45:28;9.45;;;6.50;;
21198;SDS011;10757;51.038;3.712;2023-03-01T00:47:55;10.13;;;6.22;;
21198;SDS011;10757;51.038;3.712;2023-03-01T00:50:21;10.70;;;5.78;;
21198;SDS011;10757;51.038;3.712;2023-03-01T00:52:51;9.98;;;6.85;;
21198;SDS011;10757;51.038;3.712;2023-03-01T00:55:18;9.70;;;6.20;;
21198;SDS011;10757;51.038;3.712;2023-03-01T00:57:44;12.40;;;7.28;;
21198;SDS011;10757;51.038;3.712;2023-03-01T01:00:10;11.80;;;7.00;;
21198;SDS011;10757;51.038;3.712;2023-03-01T01:02:36;10.73;;;6.93;;
21198;SDS011;10757;51.038;3.712;2023-03-01T01:05:02;13.68;;;6.25;;
21198;SDS011;10757;51.038;3.712;2023-03-01T01:07:28;10.98;;;5.97;;
21198;SDS011;10757;51.038;3.712;2023-03-01T01:09:54;11.90;;;6.85;;
21198;SDS011;10757;51.038;3.712;2023-03-01T01:12:19;13.68;;;7.75;;
21198;SDS011;10757;51.038;3.712;2023-03-01T01:14:45;9.40;;;6.35;;
21198;SDS011;10757;51.038;3.712;2023-03-01T01:17:11;11.80;;;7.13;;
21198;SDS011;10757;51.038;3.712;2023-03-01T01:19:36;15.88;;;7.65;;
21198;SDS011;10757;51.038;3.712;2023-03-01T01:22:02;9.88;;;7.18;;
21198;SDS011;10757;51.038;3.712;2023-03-01T01:24:28;12.40;;;7.38;;
21198;SDS011;10757;51.038;3.712;2023-03-01T01:26:54;10.63;;;6.93;;
21198;SDS011;10757;51.038;3.712;2023-03-01T01:29:20;14.57;;;8.25;;
21198;SDS011;10757;51.038;3.712;2023-03-01T01:31:46;12.82;;;8.20;;
21198;SDS011;10757;51.038;3.712;2023-03-01T01:34:13;14.07;;;7.90;;
21198;SDS011;10757;51.038;3.712;2023-03-01T01:36:41;15.60;;;9.20;;
21198;SDS011;10757;51.038;3.712;2023-03-01T01:39:08;13.60;;;8.75;;
21198;SDS011;10757;51.038;3.712;2023-03-01T01:41:38;13.45;;;8.68;;
21198;SDS011;10757;51.038;3.712;2023-03-01T01:44:23;13.18;;;8.43;;
21198;SDS011;10757;51.038;3.712;2023-03-01T01:46:52;14.30;;;9.48;;
21198;SDS011;10757;51.038;3.712;2023-03-01T01:49:54;15.75;;;8.85;;
21198;SDS011;10757;51.038;3.712;2023-03-01T01:52:29;13.20;;;8.95;;
21198;SDS011;10757;51.038;3.712;2023-03-01T01:55:09;12.75;;;8.43;;
21198;SDS011;10757;51.038;3.712;2023-03-01T01:57:43;19.17;;;8.40;;
21198;SDS011;10757;51.038;3.712;2023-03-01T02:00:22;15.65;;;8.98;;
21198;SDS011;10757;51.038;3.712;2023-03-01T02:02:51;15.10;;;9.23;;
21198;SDS011;10757;51.038;3.712;2023-03-01T02:07:59;13.10;;;9.15;;
21198;SDS011;10757;51.038;3.712;2023-03-01T02:10:25;16.30;;;10.07;;
21198;SDS011;10757;51.038;3.712;2023-03-01T02:12:52;15.73;;;9.30;;
21198;SDS011;10757;51.038;3.712;2023-03-01T02:15:19;17.27;;;10.10;;
21198;SDS011;10757;51.038;3.712;2023-03-01T02:17:44;17.23;;;10.55;;
21198;SDS011;10757;51.038;3.712;2023-03-01T02:20:20;15.82;;;10.05;;
21198;SDS011;10757;51.038;3.712;2023-03-01T02:22:54;14.38;;;10.57;;
21198;SDS011;10757;51.038;3.712;2023-03-01T02:26:04;15.88;;;10.23;;
21198;SDS011;10757;51.038;3.712;2023-03-01T02:30:44;17.85;;;9.93;;
21198;SDS011;10757;51.038;3.712;2023-03-01T02:33:31;19.20;;;11.63;;
21198;SDS011;10757;51.038;3.712;2023-03-01T02:36:01;20.45;;;11.77;;
21198;SDS011;10757;51.038;3.712;2023-03-01T02:38:31;20.38;;;12.10;;
21198;SDS011;10757;51.038;3.712;2023-03-01T02:40:57;18.98;;;12.57;;
21198;SDS011;10757;51.038;3.712;2023-03-01T02:43:24;20.45;;;12.05;;
21198;SDS011;10757;51.038;3.712;2023-03-01T02:45:57;24.55;;;11.90;;
21198;SDS011;10757;51.038;3.712;2023-03-01T02:48:23;17.83;;;12.05;;
21198;SDS011;10757;51.038;3.712;2023-03-01T02:56:06;22.10;;;12.52;;
21198;SDS011;10757;51.038;3.712;2023-03-01T02:58:37;21.33;;;12.88;;
21198;SDS011;10757;51.038;3.712;2023-03-01T03:01:11;20.23;;;13.48;;
21198;SDS011;10757;51.038;3.712;2023-03-01T03:03:40;20.15;;;13.75;;
21198;SDS011;10757;51.038;3.712;2023-03-01T03:06:06;21.77;;;13.85;;
21198;SDS011;10757;51.038;3.712;2023-03-01T03:08:31;22.10;;;13.90;;
21198;SDS011;10757;51.038;3.712;2023-03-01T03:10:57;20.55;;;13.38;;
21198;SDS011;10757;51.038;3.712;2023-03-01T03:13:22;20.77;;;14.25;;
21198;SDS011;10757;51.038;3.712;2023-03-01T03:15:53;20.55;;;13.77;;
21198;SDS011;10757;51.038;3.712;2023-03-01T03:18:20;21.65;;;12.48;;
21198;SDS011;10757;51.038;3.712;2023-03-01T03:20:46;20.70;;;13.82;;
21198;SDS011;10757;51.038;3.712;2023-03-01T03:23:11;22.02;;;14.73;;
21198;SDS011;10757;51.038;3.712;2023-03-01T03:25:37;19.65;;;13.00;;
21198;SDS011;10757;51.038;3.712;2023-03-01T03:28:03;20.45;;;13.32;;
21198;SDS011;10757;51.038;3.712;2023-03-01T03:30:35;21.08;;;14.07;;
21198;SDS011;10757;51.038;3.712;2023-03-01T03:33:04;21.30;;;13.73;;
21198;SDS011;10757;51.038;3.712;2023-03-01T03:35:37;22.58;;;13.80;;
21198;SDS011;10757;51.038;3.712;2023-03-01T03:38:09;20.25;;;13.82;;
21198;SDS011;10757;51.038;3.712;2023-03-01T03:40:41;20.88;;;13.57;;
21198;SDS011;10757;51.038;3.712;2023-03-01T03:43:09;22.13;;;13.60;;
21198;SDS011;10757;51.038;3.712;2023-03-01T03:45:39;20.40;;;13.43;;
21198;SDS011;10757;51.038;3.712;2023-03-01T03:48:06;21.90;;;13.93;;
21198;SDS011;10757;51.038;3.712;2023-03-01T03:50:34;27.50;;;15.77;;
21198;SDS011;10757;51.038;3.712;2023-03-01T03:53:00;24.83;;;14.93;;
21198;SDS011;10757;51.038;3.712;2023-03-01T03:55:28;23.05;;;14.48;;
21198;SDS011;10757;51.038;3.712;2023-03-01T03:57:56;23.45;;;14.05;;
21198;SDS011;10757;51.038;3.712;2023-03-01T04:00:25;21.45;;;14.00;;
21198;SDS011;10757;51.038;3.712;2023-03-01T04:02:51;25.75;;;14.23;;
21198;SDS011;10757;51.038;3.712;2023-03-01T04:05:21;24.65;;;14.38;;
21198;SDS011;10757;51.038;3.712;2023-03-01T04:07:48;23.83;;;14.48;;
21198;SDS011;10757;51.038;3.712;2023-03-01T04:10:15;22.58;;;15.00;;
21198;SDS011;10757;51.038;3.712;2023-03-01T04:12:42;23.27;;;14.18;;
21198;SDS011;10757;51.038;3.712;2023-03-01T04:15:08;23.90;;;15.43;;
21198;SDS011;10757;51.038;3.712;2023-03-01T04:17:38;24.52;;;15.38;;
21198;SDS011;10757;51.038;3.712;2023-03-01T04:20:09;26.80;;;14.65;;
21198;SDS011;10757;51.038;3.712;2023-03-01T04:22:36;24.50;;;14.75;;
21198;SDS011;10757;51.038;3.712;2023-03-01T04:25:03;25.92;;;15.85;;
21198;SDS011;10757;51.038;3.712;2023-03-01T04:27:31;23.13;;;14.93;;
21198;SDS011;10757;51.038;3.712;2023-03-01T04:30:01;22.08;;;14.00;;
21198;SDS011;10757;51.038;3.712;2023-03-01T04:32:28;23.27;;;14.85;;
21198;SDS011;10757;51.038;3.712;2023-03-01T04:34:53;24.65;;;14.52;;
21198;SDS011;10757;51.038;3.712;2023-03-01T04:37:19;24.35;;;14.20;;
21198;SDS011;10757;51.038;3.712;2023-03-01T04:39:45;26.27;;;14.43;;
21198;SDS011;10757;51.038;3.712;2023-03-01T04:42:11;23.95;;;14.90;;
21198;SDS011;10757;51.038;3.712;2023-03-01T04:44:37;27.23;;;15.23;;
21198;SDS011;10757;51.038;3.712;2023-03-01T04:47:03;24.83;;;15.05;;
21198;SDS011;10757;51.038;3.712;2023-03-01T04:49:28;24.40;;;15.07;;
21198;SDS011;10757;51.038;3.712;2023-03-01T04:51:54;25.38;;;14.32;;
21198;SDS011;10757;51.038;3.712;2023-03-01T04:54:23;25.33;;;13.40;;
21198;SDS011;10757;51.038;3.712;2023-03-01T04:56:49;25.30;;;15.07;;
21198;SDS011;10757;51.038;3.712;2023-03-01T04:59:14;23.98;;;14.52;;
21198;SDS011;10757;51.038;3.712;2023-03-01T05:01:40;24.90;;;14.50;;
21198;SDS011;10757;51.038;3.712;2023-03-01T05:04:07;26.42;;;14.98;;
21198;SDS011;10757;51.038;3.712;2023-03-01T05:06:38;23.60;;;15.23;;
21198;SDS011;10757;51.038;3.712;2023-03-01T05:09:04;29.58;;;14.73;;
21198;SDS011;10757;51.038;3.712;2023-03-01T05:11:30;25.55;;;15.55;;
21198;SDS011;10757;51.038;3.712;2023-03-01T05:14:00;24.60;;;15.05;;
21198;SDS011;10757;51.038;3.712;2023-03-01T05:16:27;26.23;;;14.60;;
21198;SDS011;10757;51.038;3.712;2023-03-01T05:18:53;24.55;;;14.45;;
21198;SDS011;10757;51.038;3.712;2023-03-01T05:21:20;22.77;;;14.18;;
21198;SDS011;10757;51.038;3.712;2023-03-01T05:23:46;25.63;;;14.05;;
21198;SDS011;10757;51.038;3.712;2023-03-01T05:26:12;41.42;;;24.10;;
21198;SDS011;10757;51.038;3.712;2023-03-01T05:28:39;25.98;;;14.75;;
21198;SDS011;10757;51.038;3.712;2023-03-01T05:31:05;27.48;;;15.18;;
21198;SDS011;10757;51.038;3.712;2023-03-01T05:33:35;27.83;;;14.50;;
21198;SDS011;10757;51.038;3.712;2023-03-01T05:36:05;28.33;;;14.57;;
21198;SDS011;10757;51.038;3.712;2023-03-01T05:38:33;24.20;;;15.07;;
21198;SDS011;10757;51.038;3.712;2023-03-01T05:40:59;47.08;;;21.23;;
21198;SDS011;10757;51.038;3.712;2023-03-01T05:43:25;29.90;;;17.00;;
21198;SDS011;10757;51.038;3.712;2023-03-01T05:45:50;24.98;;;15.23;;
21198;SDS011;10757;51.038;3.712;2023-03-01T05:48:16;77.75;;;20.42;;
21198;SDS011;10757;51.038;3.712;2023-03-01T05:50:44;27.58;;;15.95;;
21198;SDS011;10757;51.038;3.712;2023-03-01T05:53:13;29.35;;;15.15;;
21198;SDS011;10757;51.038;3.712;2023-03-01T05:55:41;24.88;;;15.10;;
21198;SDS011;10757;51.038;3.712;2023-03-01T05:58:09;32.25;;;18.73;;
21198;SDS011;10757;51.038;3.712;2023-03-01T06:00:36;26.98;;;15.05;;
21198;SDS011;10757;51.038;3.712;2023-03-01T06:03:02;24.25;;;14.52;;
21198;SDS011;10757;51.038;3.712;2023-03-01T06:05:29;31.25;;;14.68;;
21198;SDS011;10757;51.038;3.712;2023-03-01T06:07:55;27.38;;;15.85;;
21198;SDS011;10757;51.038;3.712;2023-03-01T06:10:23;25.23;;;15.35;;
21198;SDS011;10757;51.038;3.712;2023-03-01T06:12:49;23.85;;;15.07;;
21198;SDS011;10757;51.038;3.712;2023-03-01T06:15:15;22.00;;;13.23;;
21198;SDS011;10757;51.038;3.712;2023-03-01T06:17:42;25.33;;;14.88;;
21198;SDS011;10757;51.038;3.712;2023-03-01T06:22:43;21.40;;;12.40;;
21198;SDS011;10757;51.038;3.712;2023-03-01T06:25:09;22.98;;;14.25;;
21198;SDS011;10757;51.038;3.712;2023-03-01T06:27:37;22.90;;;13.90;;
21198;SDS011;10757;51.038;3.712;2023-03-01T06:30:03;24.60;;;13.20;;
21198;SDS011;10757;51.038;3.712;2023-03-01T06:32:30;20.75;;;12.85;;
21198;SDS011;10757;51.038;3.712;2023-03-01T06:34:56;27.05;;;13.55;;
21198;SDS011;10757;51.038;3.712;2023-03-01T06:37:23;23.88;;;13.65;;
21198;SDS011;10757;51.038;3.712;2023-03-01T06:39:50;23.88;;;14.02;;
21198;SDS011;10757;51.038;3.712;2023-03-01T06:42:19;23.58;;;13.65;;
21198;SDS011;10757;51.038;3.712;2023-03-01T06:44:44;25.25;;;13.50;;
21198;SDS011;10757;51.038;3.712;2023-03-01T06:47:11;21.58;;;13.07;;
21198;SDS011;10757;51.038;3.712;2023-03-01T06:49:36;23.67;;;13.45;;
21198;SDS011;10757;51.038;3.712;2023-03-01T06:52:03;24.50;;;13.20;;
21198;SDS011;10757;51.038;3.712;2023-03-01T06:54:29;22.63;;;12.90;;
21198;SDS011;10757;51.038;3.712;2023-03-01T06:56:54;22.55;;;12.95;;
21198;SDS011;10757;51.038;3.712;2023-03-01T06:59:20;24.73;;;13.25;;
21198;SDS011;10757;51.038;3.712;2023-03-01T07:01:46;24.20;;;14.00;;
21198;SDS011;10757;51.038;3.712;2023-03-01T07:04:12;24.42;;;12.73;;
21198;SDS011;10757;51.038;3.712;2023-03-01T07:06:38;20.75;;;12.77;;
21198;SDS011;10757;51.038;3.712;2023-03-01T07:09:04;28.42;;;13.23;;
21198;SDS011;10757;51.038;3.712;2023-03-01T07:11:30;24.13;;;12.27;;
21198;SDS011;10757;51.038;3.712;2023-03-01T07:13:56;17.00;;;10.60;;
21198;SDS011;10757;51.038;3.712;2023-03-01T07:16:23;21.25;;;10.95;;
21198;SDS011;10757;51.038;3.712;2023-03-01T07:18:50;22.45;;;11.65;;
21198;SDS011;10757;51.038;3.712;2023-03-01T07:21:16;20.58;;;11.82;;
21198;SDS011;10757;51.038;3.712;2023-03-01T07:23:42;22.38;;;11.15;;
21198;SDS011;10757;51.038;3.712;2023-03-01T07:26:07;20.48;;;12.35;;
21198;SDS011;10757;51.038;3.712;2023-03-01T07:28:33;23.23;;;11.25;;
21198;SDS011;10757;51.038;3.712;2023-03-01T07:31:05;19.65;;;11.55;;
21198;SDS011;10757;51.038;3.712;2023-03-01T07:33:31;30.90;;;12.70;;
21198;SDS011;10757;51.038;3.712;2023-03-01T07:35:58;21.70;;;12.88;;
21198;SDS011;10757;51.038;3.712;2023-03-01T07:38:25;17.33;;;10.85;;
21198;SDS011;10757;51.038;3.712;2023-03-01T07:40:52;23.65;;;10.98;;
21198;SDS011;10757;51.038;3.712;2023-03-01T07:43:18;20.23;;;11.15;;
21198;SDS011;10757;51.038;3.712;2023-03-01T07:45:45;23.17;;;11.60;;
21198;SDS011;10757;51.038;3.712;2023-03-01T07:48:11;21.75;;;11.55;;
21198;SDS011;10757;51.038;3.712;2023-03-01T07:50:37;19.42;;;10.90;;
21198;SDS011;10757;51.038;3.712;2023-03-01T07:53:02;15.23;;;9.27;;
21198;SDS011;10757;51.038;3.712;2023-03-01T07:55:29;24.38;;;10.95;;
21198;SDS011;10757;51.038;3.712;2023-03-01T07:57:55;24.60;;;10.45;;
21198;SDS011;10757;51.038;3.712;2023-03-01T08:00:22;18.23;;;10.43;;
21198;SDS011;10757;51.038;3.712;2023-03-01T08:02:48;19.10;;;9.82;;
21198;SDS011;10757;51.038;3.712;2023-03-01T08:05:13;19.52;;;10.63;;
21198;SDS011;10757;51.038;3.712;2023-03-01T08:07:40;15.98;;;8.77;;
21198;SDS011;10757;51.038;3.712;2023-03-01T08:10:05;24.17;;;11.50;;
21198;SDS011;10757;51.038;3.712;2023-03-01T08:12:31;13.45;;;8.82;;
21198;SDS011;10757;51.038;3.712;2023-03-01T08:14:57;20.27;;;9.23;;
21198;SDS011;10757;51.038;3.712;2023-03-01T08:17:23;16.85;;;9.63;;
21198;SDS011;10757;51.038;3.712;2023-03-01T08:19:49;21.45;;;10.00;;
21198;SDS011;10757;51.038;3.712;2023-03-01T08:22:16;18.00;;;10.35;;
21198;SDS011;10757;51.038;3.712;2023-03-01T08:24:43;19.73;;;9.10;;
21198;SDS011;10757;51.038;3.712;2023-03-01T08:27:09;21.13;;;8.45;;
21198;SDS011;10757;51.038;3.712;2023-03-01T08:29:38;14.15;;;8.75;;
21198;SDS011;10757;51.038;3.712;2023-03-01T08:32:03;14.18;;;8.73;;
21198;SDS011;10757;51.038;3.712;2023-03-01T08:34:36;14.60;;;9.02;;
21198;SDS011;10757;51.038;3.712;2023-03-01T08:37:02;16.08;;;9.10;;
21198;SDS011;10757;51.038;3.712;2023-03-01T08:39:29;21.08;;;9.55;;
21198;SDS011;10757;51.038;3.712;2023-03-01T08:41:54;17.60;;;8.13;;
21198;SDS011;10757;51.038;3.712;2023-03-01T08:44:20;15.98;;;8.25;;
21198;SDS011;10757;51.038;3.712;2023-03-01T08:46:47;18.25;;;8.38;;
21198;SDS011;10757;51.038;3.712;2023-03-01T08:49:16;13.40;;;7.97;;
21198;SDS011;10757;51.038;3.712;2023-03-01T08:51:44;18.02;;;9.82;;
21198;SDS011;10757;51.038;3.712;2023-03-01T08:54:14;12.15;;;7.85;;
21198;SDS011;10757;51.038;3.712;2023-03-01T08:56:42;17.42;;;7.78;;
21198;SDS011;10757;51.038;3.712;2023-03-01T08:59:09;14.48;;;7.93;;
21198;SDS011;10757;51.038;3.712;2023-03-01T09:01:35;16.75;;;8.07;;
21198;SDS011;10757;51.038;3.712;2023-03-01T09:04:03;15.43;;;9.32;;
21198;SDS011;10757;51.038;3.712;2023-03-01T09:06:33;21.15;;;7.95;;
21198;SDS011;10757;51.038;3.712;2023-03-01T09:08:59;17.80;;;8.43;;
21198;SDS011;10757;51.038;3.712;2023-03-01T09:11:25;14.15;;;8.48;;
21198;SDS011;10757;51.038;3.712;2023-03-01T09:13:53;14.10;;;8.00;;
21198;SDS011;10757;51.038;3.712;2023-03-01T09:16:20;13.18;;;7.55;;
21198;SDS011;10757;51.038;3.712;2023-03-01T09:18:54;13.18;;;7.05;;
21198;SDS011;10757;51.038;3.712;2023-03-01T09:23:49;16.80;;;9.25;;
21198;SDS011;10757;51.038;3.712;2023-03-01T09:26:18;18.77;;;8.32;;
21198;SDS011;10757;51.038;3.712;2023-03-01T09:28:47;12.63;;;7.35;;
21198;SDS011;10757;51.038;3.712;2023-03-01T09:33:45;12.68;;;7.97;;
21198;SDS011;10757;51.038;3.712;2023-03-01T09:36:13;17.92;;;8.50;;
21198;SDS011;10757;51.038;3.712;2023-03-01T09:38:41;13.45;;;7.85;;
21198;SDS011;10757;51.038;3.712;2023-03-01T09:44:27;17.20;;;8.05;;
21198;SDS011;10757;51.038;3.712;2023-03-01T09:52:46;19.30;;;8.05;;
21198;SDS011;10757;51.038;3.712;2023-03-01T09:55:45;21.73;;;9.68;;
21198;SDS011;10757;51.038;3.712;2023-03-01T10:06:37;13.82;;;7.70;;
21198;SDS011;10757;51.038;3.712;2023-03-01T10:09:12;11.93;;;7.15;;
21198;SDS011;10757;51.038;3.712;2023-03-01T10:11:48;14.70;;;8.35;;
21198;SDS011;10757;51.038;3.712;2023-03-01T10:19:55;14.55;;;7.15;;
21198;SDS011;10757;51.038;3.712;2023-03-01T10:22:55;14.10;;;8.30;;
21198;SDS011;10757;51.038;3.712;2023-03-01T10:28:26;15.00;;;7.65;;
21198;SDS011;10757;51.038;3.712;2023-03-01T10:30:56;10.63;;;5.88;;
21198;SDS011;10757;51.038;3.712;2023-03-01T10:33:32;14.30;;;6.80;;
21198;SDS011;10757;51.038;3.712;2023-03-01T10:36:01;15.02;;;7.13;;
21198;SDS011;10757;51.038;3.712;2023-03-01T10:38:30;19.10;;;7.55;;
21198;SDS011;10757;51.038;3.712;2023-03-01T10:41:12;16.85;;;7.10;;
21198;SDS011;10757;51.038;3.712;2023-03-01T10:49:12;11.50;;;7.00;;
21198;SDS011;10757;51.038;3.712;2023-03-01T10:54:19;10.55;;;7.20;;
21198;SDS011;10757;51.038;3.712;2023-03-01T10:56:47;14.68;;;6.75;;
21198;SDS011;10757;51.038;3.712;2023-03-01T10:59:22;13.38;;;7.15;;
21198;SDS011;10757;51.038;3.712;2023-03-01T11:04:58;11.85;;;6.85;;
21198;SDS011;10757;51.038;3.712;2023-03-01T11:07:49;17.90;;;8.43;;
21198;SDS011;10757;51.038;3.712;2023-03-01T11:10:19;12.75;;;6.60;;
21198;SDS011;10757;51.038;3.712;2023-03-01T11:12:46;15.27;;;8.57;;
21198;SDS011;10757;51.038;3.712;2023-03-01T11:15:20;11.75;;;6.53;;
21198;SDS011;10757;51.038;3.712;2023-03-01T11:17:50;9.70;;;5.93;;
21198;SDS011;10757;51.038;3.712;2023-03-01T11:23:12;10.02;;;6.15;;
21198;SDS011;10757;51.038;3.712;2023-03-01T11:25:40;10.73;;;6.60;;
21198;SDS011;10757;51.038;3.712;2023-03-01T11:28:16;16.73;;;6.50;;
21198;SDS011;10757;51.038;3.712;2023-03-01T11:36:35;11.75;;;7.22;;
21198;SDS011;10757;51.038;3.712;2023-03-01T11:41:48;12.63;;;7.20;;
21198;SDS011;10757;51.038;3.712;2023-03-01T11:44:21;9.10;;;5.90;;
21198;SDS011;10757;51.038;3.712;2023-03-01T11:55:09;9.00;;;5.68;;
21198;SDS011;10757;51.038;3.712;2023-03-01T11:58:01;14.82;;;6.43;;
21198;SDS011;10757;51.038;3.712;2023-03-01T12:05:59;12.05;;;5.95;;
21198;SDS011;10757;51.038;3.712;2023-03-01T12:08:44;11.43;;;6.07;;
21198;SDS011;10757;51.038;3.712;2023-03-01T12:13:57;10.90;;;6.28;;
21198;SDS011;10757;51.038;3.712;2023-03-01T12:24:32;12.90;;;5.93;;
21198;SDS011;10757;51.038;3.712;2023-03-01T12:29:34;12.30;;;6.07;;
21198;SDS011;10757;51.038;3.712;2023-03-01T12:36:08;11.82;;;5.82;;
21198;SDS011;10757;51.038;3.712;2023-03-01T12:49:31;11.75;;;5.63;;
21198;SDS011;10757;51.038;3.712;2023-03-01T12:54:38;9.70;;;5.13;;
21198;SDS011;10757;51.038;3.712;2023-03-01T12:59:39;8.73;;;5.35;;
21198;SDS011;10757;51.038;3.712;2023-03-01T13:05:15;14.82;;;5.78;;
21198;SDS011;10757;51.038;3.712;2023-03-01T13:10:52;11.27;;;6.03;;
21198;SDS011;10757;51.038;3.712;2023-03-01T13:13:27;8.73;;;5.15;;
21198;SDS011;10757;51.038;3.712;2023-03-01T13:15:54;10.05;;;5.70;;
21198;SDS011;10757;51.038;3.712;2023-03-01T13:20:49;13.35;;;5.53;;
21198;SDS011;10757;51.038;3.712;2023-03-01T13:28:48;16.30;;;5.55;;
21198;SDS011;10757;51.038;3.712;2023-03-01T13:33:45;10.05;;;5.60;;
21198;SDS011;10757;51.038;3.712;2023-03-01T13:38:58;12.68;;;5.53;;
21198;SDS011;10757;51.038;3.712;2023-03-01T13:41:59;17.05;;;7.22;;
21198;SDS011;10757;51.038;3.712;2023-03-01T13:49:43;9.80;;;5.30;;
21198;SDS011;10757;51.038;3.712;2023-03-01T13:55:06;11.18;;;6.32;;
21198;SDS011;10757;51.038;3.712;2023-03-01T13:57:41;12.10;;;7.00;;
21198;SDS011;10757;51.038;3.712;2023-03-01T14:05:39;11.80;;;6.25;;
21198;SDS011;10757;51.038;3.712;2023-03-01T14:08:21;13.40;;;6.65;;
21198;SDS011;10757;51.038;3.712;2023-03-01T14:10:52;11.95;;;6.22;;
21198;SDS011;10757;51.038;3.712;2023-03-01T14:21:34;13.13;;;7.22;;
21198;SDS011;10757;51.038;3.712;2023-03-01T14:24:02;12.98;;;6.55;;
21198;SDS011;10757;51.038;3.712;2023-03-01T14:26:37;13.50;;;6.47;;
21198;SDS011;10757;51.038;3.712;2023-03-01T14:29:03;14.23;;;6.85;;
21198;SDS011;10757;51.038;3.712;2023-03-01T14:31:38;18.73;;;8.70;;
21198;SDS011;10757;51.038;3.712;2023-03-01T14:34:04;12.32;;;7.70;;
21198;SDS011;10757;51.038;3.712;2023-03-01T14:36:31;14.43;;;6.72;;
21198;SDS011;10757;51.038;3.712;2023-03-01T14:38:59;17.48;;;5.70;;
21198;SDS011;10757;51.038;3.712;2023-03-01T14:41:30;12.77;;;6.47;;
21198;SDS011;10757;51.038;3.712;2023-03-01T14:49:17;12.52;;;6.78;;
21198;SDS011;10757;51.038;3.712;2023-03-01T14:52:17;9.60;;;6.43;;
21198;SDS011;10757;51.038;3.712;2023-03-01T14:54:49;11.35;;;5.93;;
21198;SDS011;10757;51.038;3.712;2023-03-01T14:57:20;13.63;;;6.30;;
21198;SDS011;10757;51.038;3.712;2023-03-01T14:59:59;18.38;;;7.60;;
21198;SDS011;10757;51.038;3.712;2023-03-01T15:02:37;11.30;;;6.43;;
21198;SDS011;10757;51.038;3.712;2023-03-01T15:05:06;13.63;;;6.22;;
21198;SDS011;10757;51.038;3.712;2023-03-01T15:07:43;12.18;;;7.70;;
21198;SDS011;10757;51.038;3.712;2023-03-01T15:10:26;15.52;;;7.25;;
21198;SDS011;10757;51.038;3.712;2023-03-01T15:12:53;11.15;;;5.55;;
21198;SDS011;10757;51.038;3.712;2023-03-01T15:15:38;13.35;;;7.22;;
21198;SDS011;10757;51.038;3.712;2023-03-01T15:18:26;14.38;;;8.30;;
21198;SDS011;10757;51.038;3.712;2023-03-01T15:20:53;9.23;;;5.97;;
21198;SDS011;10757;51.038;3.712;2023-03-01T15:23:24;14.25;;;5.82;;
21198;SDS011;10757;51.038;3.712;2023-03-01T15:25:53;13.43;;;7.22;;
21198;SDS011;10757;51.038;3.712;2023-03-01T15:28:26;11.30;;;6.60;;
21198;SDS011;10757;51.038;3.712;2023-03-01T15:31:00;13.77;;;8.07;;
21198;SDS011;10757;51.038;3.712;2023-03-01T15:33:47;10.23;;;6.00;;
21198;SDS011;10757;51.038;3.712;2023-03-01T15:42:13;15.65;;;5.68;;
21198;SDS011;10757;51.038;3.712;2023-03-01T15:45:07;15.73;;;7.30;;
21198;SDS011;10757;51.038;3.712;2023-03-01T15:47:33;13.27;;;8.15;;
21198;SDS011;10757;51.038;3.712;2023-03-01T15:50:01;11.40;;;7.13;;
21198;SDS011;10757;51.038;3.712;2023-03-01T15:52:29;15.55;;;7.72;;
21198;SDS011;10757;51.038;3.712;2023-03-01T15:55:00;11.90;;;7.22;;
21198;SDS011;10757;51.038;3.712;2023-03-01T15:57:34;11.75;;;6.82;;
21198;SDS011;10757;51.038;3.712;2023-03-01T16:00:00;10.55;;;6.85;;
21198;SDS011;10757;51.038;3.712;2023-03-01T16:02:31;12.52;;;6.57;;
21198;SDS011;10757;51.038;3.712;2023-03-01T16:04:56;10.93;;;7.22;;
21198;SDS011;10757;51.038;3.712;2023-03-01T16:07:22;12.40;;;6.85;;
21198;SDS011;10757;51.038;3.712;2023-03-01T16:09:48;12.85;;;7.40;;
21198;SDS011;10757;51.038;3.712;2023-03-01T16:12:15;13.82;;;7.65;;
21198;SDS011;10757;51.038;3.712;2023-03-01T16:14:44;17.27;;;7.40;;
21198;SDS011;10757;51.038;3.712;2023-03-01T16:17:10;15.85;;;8.48;;
21198;SDS011;10757;51.038;3.712;2023-03-01T16:19:39;15.07;;;7.18;;
21198;SDS011;10757;51.038;3.712;2023-03-01T16:24:35;14.05;;;7.15;;
21198;SDS011;10757;51.038;3.712;2023-03-01T16:27:01;15.43;;;7.65;;
21198;SDS011;10757;51.038;3.712;2023-03-01T16:29:27;16.77;;;7.65;;
21198;SDS011;10757;51.038;3.712;2023-03-01T16:31:54;11.95;;;7.10;;
21198;SDS011;10757;51.038;3.712;2023-03-01T16:34:20;14.07;;;7.22;;
21198;SDS011;10757;51.038;3.712;2023-03-01T16:36:46;14.73;;;6.72;;
21198;SDS011;10757;51.038;3.712;2023-03-01T16:39:13;11.63;;;6.82;;
21198;SDS011;10757;51.038;3.712;2023-03-01T16:41:38;12.10;;;7.43;;
21198;SDS011;10757;51.038;3.712;2023-03-01T16:44:05;16.48;;;8.02;;
21198;SDS011;10757;51.038;3.712;2023-03-01T16:46:31;13.55;;;8.40;;
21198;SDS011;10757;51.038;3.712;2023-03-01T16:49:00;11.85;;;7.78;;
21198;SDS011;10757;51.038;3.712;2023-03-01T16:51:25;16.45;;;8.40;;
21198;SDS011;10757;51.038;3.712;2023-03-01T16:53:51;15.18;;;8.38;;
21198;SDS011;10757;51.038;3.712;2023-03-01T16:56:18;14.93;;;9.23;;
21198;SDS011;10757;51.038;3.712;2023-03-01T16:58:44;17.13;;;8.88;;
21198;SDS011;10757;51.038;3.712;2023-03-01T17:01:14;20.73;;;9.65;;
21198;SDS011;10757;51.038;3.712;2023-03-01T17:03:42;14.68;;;7.78;;
21198;SDS011;10757;51.038;3.712;2023-03-01T17:06:10;16.00;;;8.90;;
21198;SDS011;10757;51.038;3.712;2023-03-01T17:08:37;14.73;;;8.45;;
21198;SDS011;10757;51.038;3.712;2023-03-01T17:11:04;14.88;;;8.15;;
21198;SDS011;10757;51.038;3.712;2023-03-01T17:13:33;12.75;;;8.00;;
21198;SDS011;10757;51.038;3.712;2023-03-01T17:16:00;14.15;;;7.43;;
21198;SDS011;10757;51.038;3.712;2023-03-01T17:18:28;10.25;;;7.00;;
21198;SDS011;10757;51.038;3.712;2023-03-01T17:20:53;11.43;;;7.53;;
21198;SDS011;10757;51.038;3.712;2023-03-01T17:23:19;13.48;;;7.82;;
21198;SDS011;10757;51.038;3.712;2023-03-01T17:25:46;12.77;;;7.70;;
21198;SDS011;10757;51.038;3.712;2023-03-01T17:28:12;15.80;;;8.20;;
21198;SDS011;10757;51.038;3.712;2023-03-01T17:30:44;12.88;;;7.65;;